MSC Giovanna — 3FRB9 — position and weather

sailwx.info

Track history (hours):
 
Tides and Currents Weather Stations Pressure Air Temp Water Temp Dewpoint Dewpoint Depression Visibility Wind Speed Wind Dir Waves Ship Positions

MSC Giovanna

Last reported at 2017-Jun-24 20:29 UTC. Time now 2017-Jun-24 20:54 UTC.
Position N 35°28' E 034°38'.

Length 178 m; draft 9.8 m.

Type: Ship. MMSI: 357702000.

Date/timePositionNaut miles runAvg speedWind from/ knotsBaromVisibWave heightAir tempDewpointWater temp
2017-Jun-24 20:29N 35°28' E 034°38'713.9
2017-Jun-24 19:59N 35°34' E 034°41'714.1
2017-Jun-24 19:30N 35°41' E 034°43'2513.3
2017-Jun-24 17:36N 36°06' E 034°43'313.2
2017-Jun-24 17:21N 36°09' E 034°42'614.8
2017-Jun-24 16:57N 36°15' E 034°42'715.0
2017-Jun-24 16:30N 36°22' E 034°42'715.0
2017-Jun-24 16:01N 36°29' E 034°42'815.0
2017-Jun-24 15:30N 36°37' E 034°41'814.0
2017-Jun-24 14:58N 36°44' E 034°40'4 3.3
2017-Jun-24 13:53N 36°48' E 034°38'0 0.0
2017-Jun-24 13:30N 36°48' E 034°38'0 0.0
2017-Jun-24 08:23N 36°48' E 034°38'99 7.0
2017-Jun-23 18:18N 35°55' E 032°55'714.4
2017-Jun-23 17:47N 35°54' E 032°46'11014.6
2017-Jun-23 10:15N 35°58' E 030°30'514.4
2017-Jun-23 09:56N 35°59' E 030°24'23213.5
2017-Jun-22 16:48N 37°23' E 025°55'414.5
2017-Jun-22 16:31N 37°27' E 025°53'714.4
2017-Jun-22 16:01N 37°34' E 025°52'814.4
2017-Jun-22 15:27N 37°42' E 025°50'  
2017-Jun-17 04:26N 39°56' E 025°57'510.7
2017-Jun-17 04:00N 39°52' E 025°54'713.5
2017-Jun-17 03:30N 39°46' E 025°51'13515.6
2017-Jun-16 18:51N 37°31' E 025°53'515.6
2017-Jun-16 18:30N 37°26' E 025°55'32815.3
2017-Jun-15 21:03N 32°36' E 029°04'115.5
2017-Jun-15 21:00N 32°36' E 029°04'815.5
2017-Jun-15 20:30N 32°29' E 029°08'  
Track history (hours):
 
Tides and Currents Weather Stations Pressure Air Temp Water Temp Dewpoint Dewpoint Depression Visibility Wind Speed Wind Dir Waves Ship Positions

MSC Giovanna

Last reported at 2017-Jun-24 20:29 UTC. Time now 2017-Jun-24 20:54 UTC.
Position N 35°28' E 034°38'.

Length 178 m; draft 9.8 m.

Type: Ship. MMSI: 357702000.

Date/timePositionNaut miles runAvg speedWind from/ knotsBaromVisibWave heightAir tempDewpointWater temp
2017-Jun-24 20:29N 35°28' E 034°38'713.9
2017-Jun-24 19:59N 35°34' E 034°41'714.1
2017-Jun-24 19:30N 35°41' E 034°43'2513.3
2017-Jun-24 17:36N 36°06' E 034°43'313.2
2017-Jun-24 17:21N 36°09' E 034°42'614.8
2017-Jun-24 16:57N 36°15' E 034°42'715.0
2017-Jun-24 16:30N 36°22' E 034°42'715.0
2017-Jun-24 16:01N 36°29' E 034°42'815.0
2017-Jun-24 15:30N 36°37' E 034°41'814.0
2017-Jun-24 14:58N 36°44' E 034°40'4 3.3
2017-Jun-24 13:53N 36°48' E 034°38'0 0.0
2017-Jun-24 13:30N 36°48' E 034°38'0 0.0
2017-Jun-24 08:23N 36°48' E 034°38'99 7.0
2017-Jun-23 18:18N 35°55' E 032°55'714.4
2017-Jun-23 17:47N 35°54' E 032°46'11014.6
2017-Jun-23 10:15N 35°58' E 030°30'514.4
2017-Jun-23 09:56N 35°59' E 030°24'23213.5
2017-Jun-22 16:48N 37°23' E 025°55'414.5
2017-Jun-22 16:31N 37°27' E 025°53'714.4
2017-Jun-22 16:01N 37°34' E 025°52'814.4
2017-Jun-22 15:27N 37°42' E 025°50'  
2017-Jun-17 04:26N 39°56' E 025°57'510.7
2017-Jun-17 04:00N 39°52' E 025°54'713.5
2017-Jun-17 03:30N 39°46' E 025°51'13515.6
2017-Jun-16 18:51N 37°31' E 025°53'515.6
2017-Jun-16 18:30N 37°26' E 025°55'32815.3
2017-Jun-15 21:03N 32°36' E 029°04'115.5
2017-Jun-15 21:00N 32°36' E 029°04'815.5
2017-Jun-15 20:30N 32°29' E 029°08'  

Dump ship's entire track history